createdAt,value
2022-09-23T14:05:25.223Z,23.87
2022-09-23T14:05:51.118Z,23.86
2022-09-23T14:06:23.157Z,23.86
2022-09-23T14:06:38.357Z,23.86
2022-09-23T14:06:54.506Z,23.86
2022-09-23T14:07:11.082Z,23.86
2022-09-23T14:07:29.149Z,23.86
2022-09-23T14:07:46.488Z,23.86
2022-09-23T14:08:01.099Z,23.86
2022-09-23T14:08:16.590Z,23.86
2022-09-23T14:08:30.128Z,23.86
2022-09-23T14:08:49.589Z,23.86
2022-09-23T14:09:02.837Z,23.86
2022-09-23T14:09:19.027Z,23.86
2022-09-23T14:09:36.461Z,23.86
2022-09-23T14:09:49.768Z,23.86
2022-09-23T14:10:07.284Z,23.86
2022-09-23T14:10:26.363Z,23.85
2022-09-23T14:10:38.850Z,23.85
2022-09-23T14:10:55.623Z,23.85
2022-09-23T14:11:10.628Z,23.85
2022-09-23T14:11:26.070Z,23.84
2022-09-23T14:11:43.448Z,23.84
2022-09-23T14:11:58.331Z,23.84
2022-09-23T14:12:14.405Z,23.84
2022-09-23T14:12:32.966Z,23.84
2022-09-23T14:12:49.680Z,23.84
2022-09-23T14:13:03.243Z,23.84
2022-09-23T14:13:35.619Z,23.84
2022-09-23T14:13:50.067Z,23.84
2022-09-23T14:14:09.425Z,23.84
2022-09-23T14:14:22.832Z,23.84
2022-09-23T14:14:40.660Z,23.83
2022-09-23T14:14:54.199Z,23.83
2022-09-23T14:15:11.429Z,23.83
2022-09-23T14:15:30.945Z,23.83
2022-09-23T14:15:47.497Z,23.82
2022-09-23T14:16:15.036Z,23.82
2022-09-23T14:16:47.816Z,23.82
2022-09-23T14:17:20.059Z,23.82
2022-09-23T14:17:34.190Z,23.82
2022-09-23T14:17:52.773Z,23.82
2022-09-23T14:18:06.612Z,23.82
2022-09-23T14:18:22.749Z,23.82
2022-09-23T14:18:38.326Z,23.82
2022-09-23T14:18:55.228Z,23.82
2022-09-23T14:19:10.363Z,23.82
2022-09-23T14:19:30.570Z,23.81
2022-09-23T14:19:46.699Z,23.81
2022-09-23T14:20:00.692Z,23.81
2022-09-23T14:20:14.253Z,23.8
2022-09-23T14:20:34.912Z,23.8
2022-09-23T14:21:02.201Z,23.8
2022-09-23T14:21:18.955Z,23.8
2022-09-23T14:21:34.621Z,23.8
2022-09-23T14:21:52.017Z,23.8
2022-09-23T14:22:12.364Z,23.8
2022-09-23T14:22:23.075Z,23.8
2022-09-23T14:22:42.180Z,23.79
2022-09-23T14:22:55.480Z,23.79
2022-09-23T14:23:13.008Z,23.79
2022-09-23T14:23:26.238Z,23.79
2022-09-23T14:23:45.472Z,23.79
2022-09-23T14:23:59.817Z,23.78
2022-09-23T14:24:18.720Z,23.77
2022-09-23T14:24:33.687Z,23.77
2022-09-23T14:24:47.318Z,23.77
2022-09-23T14:25:04.019Z,23.77
2022-09-23T14:25:19.291Z,23.77
2022-09-23T14:25:36.870Z,23.77
2022-09-23T14:25:52.145Z,23.77
2022-09-23T14:26:06.556Z,23.77
2022-09-23T14:26:22.035Z,23.77
2022-09-23T14:26:39.761Z,23.76
2022-09-23T14:26:54.330Z,23.76
2022-09-23T14:27:10.885Z,23.75
2022-09-23T14:27:26.015Z,23.75
2022-09-23T14:27:46.040Z,23.75
2022-09-23T14:28:00.486Z,23.75
2022-09-23T14:28:30.921Z,23.75
2022-09-23T14:28:45.921Z,23.75
2022-09-23T14:29:02.855Z,23.74
2022-09-23T14:29:20.614Z,23.74
2022-09-23T14:29:34.536Z,23.74
2022-09-23T14:29:54.367Z,23.73
2022-09-23T14:30:09.059Z,23.73
2022-09-23T14:30:38.660Z,23.73
2022-09-23T14:30:56.284Z,23.72
2022-09-23T14:31:10.081Z,23.72
2022-09-23T14:31:30.048Z,23.71
2022-09-23T14:31:44.849Z,23.71
2022-09-23T14:31:58.646Z,23.71
2022-09-23T14:32:17.589Z,23.71
2022-09-23T14:32:33.107Z,23.7
2022-09-23T14:32:46.267Z,23.7
2022-09-23T14:33:08.545Z,23.7
2022-09-23T14:33:20.196Z,23.7
2022-09-23T14:33:35.522Z,23.7
2022-09-23T14:33:52.137Z,23.69
2022-09-23T14:34:06.481Z,23.69
2022-09-23T14:34:22.400Z,23.68
2022-09-23T14:34:42.907Z,23.68
2022-09-23T14:34:56.312Z,23.68
2022-09-23T14:35:10.165Z,23.68
2022-09-23T14:35:29.724Z,23.68
2022-09-23T14:35:44.068Z,23.67
2022-09-23T14:35:59.947Z,23.67
2022-09-23T14:36:14.323Z,23.66
2022-09-23T14:36:30.296Z,23.66
2022-09-23T14:36:48.303Z,23.66
2022-09-23T14:37:05.653Z,23.66
2022-09-23T14:37:18.850Z,23.66
2022-09-23T14:37:50.666Z,23.65
2022-09-23T14:38:06.667Z,23.64
2022-09-23T14:38:24.119Z,23.64
2022-09-23T14:38:38.434Z,23.64
2022-09-23T14:38:55.460Z,23.64
2022-09-23T14:39:11.965Z,23.64
2022-09-23T14:39:27.695Z,23.64
2022-09-23T14:39:43.961Z,23.63
2022-09-23T14:39:58.019Z,23.63
2022-09-23T14:40:14.460Z,23.62
2022-09-23T14:40:29.928Z,23.62
2022-09-23T14:40:48.294Z,23.61
2022-09-23T14:41:03.592Z,23.61
2022-09-23T14:41:18.643Z,23.61
2022-09-23T14:41:37.114Z,23.61
2022-09-23T14:41:51.621Z,23.6
2022-09-23T14:42:06.569Z,23.6
2022-09-23T14:42:23.384Z,23.59
2022-09-23T14:42:38.867Z,23.59
2022-09-23T14:43:27.358Z,23.59
2022-09-23T14:43:43.160Z,23.58
2022-09-23T14:44:00.106Z,23.58
2022-09-23T14:44:15.151Z,23.57
2022-09-23T14:44:31.348Z,23.57
2022-09-23T14:45:03.134Z,23.57
2022-09-23T14:45:19.156Z,23.56
2022-09-23T14:45:34.367Z,23.56
2022-09-23T14:45:51.487Z,23.55
2022-09-23T14:46:24.530Z,23.55
2022-09-23T14:46:39.024Z,23.55
2022-09-23T14:46:54.156Z,23.54
2022-09-23T14:47:12.660Z,23.54
2022-09-23T14:47:27.574Z,23.54
2022-09-23T14:47:43.160Z,23.54
2022-09-23T14:48:13.811Z,23.53
2022-09-23T14:48:30.537Z,23.52
2022-09-23T14:48:46.503Z,23.52
2022-09-23T14:49:03.935Z,23.52
2022-09-23T14:49:21.317Z,23.52
2022-09-23T14:49:37.328Z,23.52
2022-09-23T14:49:51.989Z,23.51
2022-09-23T14:50:06.420Z,23.51
2022-09-23T14:50:22.194Z,23.51
2022-09-23T14:50:43.539Z,23.5
2022-09-23T14:50:56.000Z,23.5
2022-09-23T14:51:13.195Z,23.5
2022-09-23T14:51:27.245Z,23.5
2022-09-23T14:51:44.616Z,23.5
2022-09-23T14:51:59.291Z,23.49
2022-09-23T14:52:15.318Z,23.49
2022-09-23T14:52:30.834Z,23.48
2022-09-23T14:52:48.570Z,23.48
2022-09-23T14:53:18.937Z,23.48
2022-09-23T14:53:35.337Z,23.47
2022-09-23T14:53:51.172Z,23.47
2022-09-23T14:54:06.025Z,23.47
2022-09-23T14:54:22.674Z,23.46
2022-09-23T14:54:38.317Z,23.46
2022-09-23T14:54:59.032Z,23.46
2022-09-23T14:55:11.473Z,23.46
2022-09-23T14:55:26.919Z,23.45
2022-09-23T14:55:43.761Z,23.45
2022-09-23T14:55:57.472Z,23.45
2022-09-23T14:56:16.273Z,23.45
2022-09-23T14:56:34.202Z,23.44
2022-09-23T14:56:48.199Z,23.44
2022-09-23T14:57:05.950Z,23.44
2022-09-23T14:57:20.050Z,23.44
2022-09-23T14:57:35.499Z,23.43
2022-09-23T14:57:52.514Z,23.43
2022-09-23T14:58:09.050Z,23.43
2022-09-23T14:58:25.318Z,23.43
2022-09-23T14:58:54.092Z,23.42
2022-09-23T14:59:10.468Z,23.42
2022-09-23T14:59:25.872Z,23.41
2022-09-23T14:59:42.811Z,23.41
2022-09-23T14:59:58.756Z,23.41
2022-09-23T15:00:14.570Z,23.41
2022-09-23T15:00:31.738Z,23.41
2022-09-23T15:00:48.763Z,23.4
2022-09-23T15:01:03.055Z,23.4
2022-09-23T15:01:36.422Z,23.39
2022-09-23T15:01:51.212Z,23.39
2022-09-23T15:02:09.634Z,23.39
2022-09-23T15:02:21.728Z,23.39
2022-09-23T15:02:39.276Z,23.39
2022-09-23T15:02:53.799Z,23.38
2022-09-23T15:03:11.297Z,23.38
2022-09-23T15:03:25.966Z,23.38
2022-09-23T15:03:58.692Z,23.37
2022-09-23T15:04:15.504Z,23.37
2022-09-23T15:04:30.346Z,23.36
2022-09-23T15:04:48.576Z,23.36
2022-09-23T15:05:03.219Z,23.36
2022-09-23T15:05:19.683Z,23.36
2022-09-23T15:05:36.443Z,23.36
2022-09-23T15:05:50.404Z,23.36
2022-09-23T15:06:09.093Z,23.35
2022-09-23T15:06:22.499Z,23.35
2022-09-23T15:06:39.329Z,23.34
2022-09-23T15:06:54.912Z,23.34
2022-09-23T15:07:13.699Z,23.34
2022-09-23T15:07:28.144Z,23.34
2022-09-23T15:07:59.693Z,23.34
2022-09-23T15:08:13.885Z,23.34
2022-09-23T15:08:34.737Z,23.33
2022-09-23T15:08:47.858Z,23.33
2022-09-23T15:09:01.434Z,23.32
2022-09-23T15:09:19.909Z,23.32
2022-09-23T15:09:35.288Z,23.32
2022-09-23T15:09:52.394Z,23.32
2022-09-23T15:10:07.651Z,23.32
2022-09-23T15:10:22.802Z,23.32
2022-09-23T15:10:41.107Z,23.31
2022-09-23T15:10:58.047Z,23.31
2022-09-23T15:11:13.062Z,23.3
2022-09-23T15:11:29.927Z,23.3
2022-09-23T15:11:57.875Z,23.3
2022-09-23T15:12:15.674Z,23.3
2022-09-23T15:12:32.359Z,23.3
2022-09-23T15:12:49.032Z,23.29
2022-09-23T15:13:04.452Z,23.29
2022-09-23T15:13:21.047Z,23.29
2022-09-23T15:13:33.936Z,23.29
2022-09-23T15:13:50.447Z,23.29
2022-09-23T15:14:32.975Z,23.28
2022-09-23T15:14:37.154Z,23.27
2022-09-23T15:14:41.286Z,23.27
2022-09-23T15:15:42.208Z,23.27
2022-09-23T15:15:57.949Z,23.27
2022-09-23T15:16:17.505Z,23.26
2022-09-23T15:16:34.316Z,23.26
2022-09-23T15:16:46.781Z,23.25
2022-09-23T15:17:17.631Z,23.25
2022-09-23T15:17:35.051Z,23.25
2022-09-23T15:17:51.536Z,23.25
2022-09-23T15:18:06.464Z,23.25
2022-09-23T15:18:23.533Z,23.25
2022-09-23T15:18:41.230Z,23.24
2022-09-23T15:19:14.584Z,23.23
2022-09-23T15:19:29.220Z,23.23
2022-09-23T15:19:45.799Z,23.23
2022-09-23T15:19:58.543Z,23.23
2022-09-23T15:20:14.232Z,23.23
2022-09-23T15:20:30.732Z,23.23
2022-09-23T15:20:47.896Z,23.22
2022-09-23T15:21:03.992Z,23.21
2022-09-23T15:21:22.066Z,23.21
2022-09-23T15:21:38.183Z,23.21
2022-09-23T15:21:51.502Z,23.21
2022-09-23T15:22:06.711Z,23.21
2022-09-23T15:22:24.404Z,23.2
2022-09-23T15:22:38.219Z,23.2
2022-09-23T15:22:57.039Z,23.2
2022-09-23T15:23:13.774Z,23.2
2022-09-23T15:23:28.678Z,23.2
2022-09-23T15:23:44.046Z,23.2
2022-09-23T15:24:02.760Z,23.2
2022-09-23T15:24:30.694Z,23.19
2022-09-23T15:24:46.203Z,23.19
2022-09-23T15:25:05.565Z,23.18
2022-09-23T15:25:18.314Z,23.18
2022-09-23T15:25:50.922Z,23.18
2022-09-23T15:26:10.627Z,23.18
2022-09-23T15:26:24.728Z,23.18
2022-09-23T15:26:38.316Z,23.18
2022-09-23T15:26:56.884Z,23.17
2022-09-23T15:27:12.407Z,23.17
2022-09-23T15:27:46.020Z,23.16
2022-09-23T15:27:59.353Z,23.16
2022-09-23T15:28:14.755Z,23.16
2022-09-23T15:28:29.507Z,23.16
2022-09-23T15:29:03.252Z,23.16
2022-09-23T15:29:20.002Z,23.16
2022-09-23T15:29:34.190Z,23.16
2022-09-23T15:29:50.557Z,23.16
2022-09-23T15:30:14.603Z,23.15
2022-09-23T15:30:40.116Z,23.14
2022-09-23T15:30:53.801Z,23.14
2022-09-23T15:31:10.059Z,23.14
2022-09-23T15:31:26.321Z,23.14
2022-09-23T15:31:43.893Z,23.14
2022-09-23T15:31:57.772Z,23.14
2022-09-23T15:32:16.212Z,23.14
2022-09-23T15:32:34.344Z,23.13
2022-09-23T15:32:49.623Z,23.13
2022-09-23T15:33:05.052Z,23.13
2022-09-23T15:33:19.544Z,23.13
2022-09-23T15:33:34.807Z,23.13
2022-09-23T15:33:49.482Z,23.12
2022-09-23T15:34:07.712Z,23.11
2022-09-23T15:34:22.279Z,23.11
2022-09-23T15:34:41.136Z,23.11
2022-09-23T15:34:55.146Z,23.11
2022-09-23T15:35:12.478Z,23.11
2022-09-23T15:35:26.378Z,23.11
2022-09-23T15:36:00.103Z,23.11
2022-09-23T15:36:16.644Z,23.1
2022-09-23T15:36:30.645Z,23.1
2022-09-23T15:36:47.464Z,23.1
2022-09-23T15:37:06.434Z,23.09
2022-09-23T15:37:36.420Z,23.09
2022-09-23T15:37:50.975Z,23.09
2022-09-23T15:38:07.614Z,23.09
2022-09-23T15:38:21.872Z,23.09
2022-09-23T15:38:41.861Z,23.09
2022-09-23T15:38:54.880Z,23.08
2022-09-23T15:39:11.075Z,23.08
2022-09-23T15:39:35.755Z,23.08
2022-09-23T15:39:44.619Z,23.07
2022-09-23T15:39:58.646Z,23.07
2022-09-23T15:40:13.887Z,23.07
2022-09-23T15:40:32.434Z,23.07
2022-09-23T15:40:49.131Z,23.07
2022-09-23T15:41:21.090Z,23.07
2022-09-23T15:41:36.049Z,23.06
2022-09-23T15:41:53.144Z,23.06
2022-09-23T15:42:06.141Z,23.06
2022-09-23T15:42:23.634Z,23.05
2022-09-23T15:42:40.547Z,23.05
2022-09-23T15:42:57.609Z,23.05
2022-09-23T15:43:09.659Z,23.05
2022-09-23T15:43:27.148Z,23.05
2022-09-23T15:43:43.254Z,23.05
2022-09-23T15:44:14.656Z,23.05
2022-09-23T15:44:33.049Z,23.05
2022-09-23T15:44:47.228Z,23.04
2022-09-23T15:45:02.100Z,23.05
2022-09-23T15:45:54.952Z,23.04
2022-09-23T15:46:07.787Z,23.04
2022-09-23T15:46:22.950Z,23.03
2022-09-23T15:46:38.667Z,23.04
2022-09-23T15:46:54.023Z,23.03
2022-09-23T15:47:11.137Z,23.03
2022-09-23T15:47:29.929Z,23.02
2022-09-23T15:47:43.460Z,23.03
2022-09-23T15:47:58.441Z,23.02
2022-09-23T15:48:14.807Z,23.02
2022-09-23T15:48:29.717Z,23.02
2022-09-23T15:49:03.799Z,23.02
2022-09-23T15:49:18.372Z,23.02
2022-09-23T15:49:38.401Z,23.01
2022-09-23T15:49:52.389Z,23.01
2022-09-23T15:50:07.863Z,23.01
2022-09-23T15:50:21.829Z,23.01
2022-09-23T15:50:41.347Z,23
2022-09-23T15:50:54.198Z,23
2022-09-23T15:51:12.325Z,23
2022-09-23T15:51:27.038Z,23
2022-09-23T15:51:42.664Z,23
2022-09-23T15:51:58.160Z,23
2022-09-23T15:52:13.644Z,22.99
2022-09-23T15:52:31.718Z,22.99
2022-09-23T15:52:47.391Z,22.99
2022-09-23T15:53:03.469Z,22.98
2022-09-23T15:53:18.115Z,22.98
2022-09-23T15:53:34.912Z,22.98
2022-09-23T15:53:49.566Z,22.98
2022-09-23T15:54:10.009Z,22.98
2022-09-23T15:54:39.153Z,22.98
2022-09-23T15:54:54.315Z,22.97
2022-09-23T15:55:09.675Z,22.97
2022-09-23T15:55:28.484Z,22.97
2022-09-23T15:55:41.946Z,22.97
2022-09-23T15:56:01.373Z,22.96
2022-09-23T15:56:15.305Z,22.96
2022-09-23T15:56:32.795Z,22.96
2022-09-23T15:56:47.481Z,22.96
2022-09-23T15:57:02.319Z,22.96
2022-09-23T15:57:18.099Z,22.96
2022-09-23T15:57:34.464Z,22.95
2022-09-23T15:57:50.460Z,22.95
2022-09-23T15:58:07.122Z,22.95
2022-09-23T15:58:23.289Z,22.95
2022-09-23T15:58:38.658Z,22.94
2022-09-23T15:58:55.503Z,22.94
2022-09-23T15:59:11.578Z,22.94
2022-09-23T15:59:26.441Z,22.94
2022-09-23T15:59:43.463Z,22.93
2022-09-23T16:00:01.617Z,22.93
2022-09-23T16:00:32.103Z,22.93
2022-09-23T16:00:46.669Z,22.93
2022-09-23T16:01:01.936Z,22.93
2022-09-23T16:01:18.136Z,22.93
2022-09-23T16:01:33.367Z,22.93
2022-09-23T16:01:51.437Z,22.92
2022-09-23T16:02:07.183Z,22.92
2022-09-23T16:02:24.189Z,22.91
2022-09-23T16:02:37.693Z,22.91
2022-09-23T16:02:56.351Z,22.91
2022-09-23T16:03:10.667Z,22.91
2022-09-23T16:03:26.725Z,22.91
2022-09-23T16:03:46.522Z,22.91
2022-09-23T16:03:59.147Z,22.91
2022-09-23T16:04:14.244Z,22.91
2022-09-23T16:04:31.092Z,22.9
2022-09-23T16:04:47.646Z,22.89
2022-09-23T16:05:03.098Z,22.89
2022-09-23T16:05:20.055Z,22.89
2022-09-23T16:05:36.411Z,22.89
2022-09-23T16:05:51.202Z,22.89
2022-09-23T16:06:06.553Z,22.89
2022-09-23T16:06:21.318Z,22.89
2022-09-23T16:06:40.355Z,22.88
2022-09-23T16:06:55.835Z,22.88
2022-09-23T16:07:10.644Z,22.88
2022-09-23T16:07:25.536Z,22.87
2022-09-23T16:07:42.124Z,22.87
2022-09-23T16:07:57.740Z,22.87
2022-09-23T16:08:14.468Z,22.87
2022-09-23T16:08:31.421Z,22.86
2022-09-23T16:08:46.680Z,22.86
2022-09-23T16:09:02.271Z,22.86
2022-09-23T16:09:21.147Z,22.86
2022-09-23T16:09:35.796Z,22.86
2022-09-23T16:09:53.460Z,22.86
2022-09-23T16:10:08.648Z,22.86
2022-09-23T16:10:22.327Z,22.85
2022-09-23T16:10:38.385Z,22.85
2022-09-23T16:10:53.859Z,22.84
2022-09-23T16:11:09.815Z,22.84
2022-09-23T16:11:27.490Z,22.84
2022-09-23T16:11:41.556Z,22.84
2022-09-23T16:12:00.036Z,22.84
2022-09-23T16:12:13.997Z,22.84
2022-09-23T16:12:31.959Z,22.84
2022-09-23T16:12:45.366Z,22.84
2022-09-23T16:13:02.915Z,22.83
2022-09-23T16:13:20.535Z,22.83
2022-09-23T16:13:34.158Z,22.82
2022-09-23T16:13:51.081Z,22.82
2022-09-23T16:14:05.581Z,22.82
2022-09-23T16:14:22.237Z,22.82
2022-09-23T16:14:37.521Z,22.82
2022-09-23T16:14:56.562Z,22.82
2022-09-23T16:15:09.240Z,22.82
2022-09-23T16:15:26.587Z,22.82
2022-09-23T16:15:41.793Z,22.82
2022-09-23T16:16:00.118Z,22.81
2022-09-23T16:16:14.099Z,22.81
2022-09-23T16:16:30.366Z,22.81
2022-09-23T16:16:49.520Z,22.8
2022-09-23T16:17:02.890Z,22.8
2022-09-23T16:17:18.414Z,22.8
2022-09-23T16:17:33.949Z,22.8
2022-09-23T16:17:50.059Z,22.8
2022-09-23T16:18:08.143Z,22.8
2022-09-23T16:18:22.495Z,22.8
2022-09-23T16:18:37.937Z,22.79
2022-09-23T16:18:54.479Z,22.79
2022-09-23T16:19:10.519Z,22.79
2022-09-23T16:19:25.792Z,22.79
2022-09-23T16:19:45.048Z,22.79
2022-09-23T16:19:57.557Z,22.78
2022-09-23T16:20:14.556Z,22.77
2022-09-23T16:20:31.083Z,22.77
2022-09-23T16:20:46.811Z,22.77
2022-09-23T16:21:01.856Z,22.77
2022-09-23T16:21:19.009Z,22.77
2022-09-23T16:21:53.407Z,22.77
2022-09-23T16:22:05.946Z,22.77
2022-09-23T16:22:21.226Z,22.77
2022-09-23T16:22:39.802Z,22.77
2022-09-23T16:22:54.636Z,22.76
2022-09-23T16:23:10.634Z,22.76
2022-09-23T16:23:25.506Z,22.75
2022-09-23T16:23:43.581Z,22.75
2022-09-23T16:23:59.247Z,22.75
2022-09-23T16:24:14.211Z,22.75
2022-09-23T16:24:33.983Z,22.75
2022-09-23T16:24:46.233Z,22.75
2022-09-23T16:25:05.782Z,22.75
2022-09-23T16:25:19.056Z,22.75
2022-09-23T16:25:34.701Z,22.74
2022-09-23T16:25:49.324Z,22.74
2022-09-23T16:26:07.344Z,22.74
2022-09-23T16:26:21.411Z,22.74
2022-09-23T16:26:38.890Z,22.73
2022-09-23T16:26:56.218Z,22.73
2022-09-23T16:27:12.244Z,22.73
2022-09-23T16:27:26.517Z,22.73
2022-09-23T16:27:42.712Z,22.73
2022-09-23T16:27:58.558Z,22.73
2022-09-23T16:28:15.276Z,22.73
2022-09-23T16:28:30.385Z,22.73
2022-09-23T16:28:45.417Z,22.72
2022-09-23T16:29:03.544Z,22.72
2022-09-23T16:29:17.489Z,22.72
2022-09-23T16:29:34.598Z,22.71
2022-09-23T16:29:49.579Z,22.71
2022-09-23T16:30:07.005Z,22.71
2022-09-23T16:30:22.386Z,22.71
2022-09-23T16:30:37.895Z,22.71
2022-09-23T16:30:56.684Z,22.7
2022-09-23T16:31:10.871Z,22.7
2022-09-23T16:31:28.634Z,22.7
2022-09-23T16:31:41.832Z,22.7
2022-09-23T16:31:58.189Z,22.7
2022-09-23T16:32:16.882Z,22.7
2022-09-23T16:32:30.204Z,22.7
2022-09-23T16:32:46.461Z,22.7
2022-09-23T16:33:01.781Z,22.69
2022-09-23T16:33:19.541Z,22.69
2022-09-23T16:33:35.129Z,22.68
2022-09-23T16:33:51.975Z,22.68
2022-09-23T16:34:07.344Z,22.68
2022-09-23T16:34:21.955Z,22.68
2022-09-23T16:34:37.580Z,22.68
2022-09-23T16:34:54.358Z,22.68
2022-09-23T16:35:10.886Z,22.68
2022-09-23T16:35:26.248Z,22.68
2022-09-23T16:35:43.192Z,22.68
2022-09-23T16:35:57.609Z,22.68
2022-09-23T16:36:14.515Z,22.68
2022-09-23T16:36:29.309Z,22.67
2022-09-23T16:36:48.014Z,22.67
2022-09-23T16:37:01.224Z,22.66
2022-09-23T16:37:18.902Z,22.66
2022-09-23T16:37:36.652Z,22.66
2022-09-23T16:37:50.216Z,22.66
2022-09-23T16:38:07.500Z,22.66
2022-09-23T16:38:21.855Z,22.65
2022-09-23T16:38:41.617Z,22.65
2022-09-23T16:38:54.594Z,22.64
2022-09-23T16:39:10.591Z,22.64
2022-09-23T16:39:25.711Z,22.65
2022-09-23T16:39:41.888Z,22.64
2022-09-23T16:39:57.893Z,22.64
2022-09-23T16:40:14.261Z,22.64
2022-09-23T16:40:29.622Z,22.64
2022-09-23T16:40:47.323Z,22.64
2022-09-23T16:41:02.004Z,22.64
2022-09-23T16:41:18.796Z,22.64
2022-09-23T16:41:35.017Z,22.64
2022-09-23T16:41:52.922Z,22.64
2022-09-23T16:42:05.974Z,22.63
2022-09-23T16:42:21.880Z,22.63
2022-09-23T16:42:38.769Z,22.63
2022-09-23T16:42:57.719Z,22.63
2022-09-23T16:43:13.355Z,22.63
2022-09-23T16:43:25.625Z,22.63
2022-09-23T16:43:42.543Z,22.63
2022-09-23T16:43:57.786Z,22.63
2022-09-23T16:44:13.313Z,22.62
2022-09-23T16:44:30.190Z,22.62
2022-09-23T16:44:47.200Z,22.61
2022-09-23T16:45:02.200Z,22.61
2022-09-23T16:45:17.807Z,22.61
2022-09-23T16:45:33.940Z,22.61
2022-09-23T16:45:50.194Z,22.61
2022-09-23T16:46:06.200Z,22.61
2022-09-23T16:46:22.171Z,22.61
2022-09-23T16:46:37.862Z,22.61
2022-09-23T16:46:54.183Z,22.61
2022-09-23T16:47:09.138Z,22.61
2022-09-23T16:47:25.948Z,22.6
2022-09-23T16:47:41.839Z,22.6
2022-09-23T16:47:58.234Z,22.6
2022-09-23T16:48:13.721Z,22.59
2022-09-23T16:48:30.545Z,22.59
2022-09-23T16:48:52.077Z,22.59
2022-09-23T16:49:04.092Z,22.59
2022-09-23T16:49:18.876Z,22.59
2022-09-23T16:49:33.895Z,22.59
2022-09-23T16:49:49.687Z,22.59
2022-09-23T16:50:06.328Z,22.59
2022-09-23T16:50:25.877Z,22.59
2022-09-23T16:50:40.400Z,22.58
2022-09-23T16:50:54.450Z,22.58
2022-09-23T16:51:11.475Z,22.58
2022-09-23T16:51:26.659Z,22.57
2022-09-23T16:51:41.406Z,22.58
2022-09-23T16:51:57.619Z,22.57
2022-09-23T16:52:14.412Z,22.57
2022-09-23T16:52:29.029Z,22.57
2022-09-23T16:52:45.853Z,22.57
2022-09-23T16:53:01.204Z,22.57
2022-09-23T16:53:18.733Z,22.57
2022-09-23T16:53:33.828Z,22.56
2022-09-23T16:53:50.586Z,22.56
2022-09-23T16:54:06.300Z,22.56
2022-09-23T16:54:22.285Z,22.55
2022-09-23T16:54:38.388Z,22.55
2022-09-23T16:54:53.480Z,22.55
2022-09-23T16:55:10.422Z,22.55
2022-09-23T16:55:25.289Z,22.55
2022-09-23T16:55:42.115Z,22.55
2022-09-23T16:55:57.922Z,22.55
2022-09-23T16:56:14.596Z,22.55
2022-09-23T16:56:30.158Z,22.55
2022-09-23T16:56:46.176Z,22.55
2022-09-23T16:57:01.967Z,22.55
2022-09-23T16:57:18.799Z,22.55
2022-09-23T16:57:33.755Z,22.55
2022-09-23T16:57:50.508Z,22.54
2022-09-23T16:58:06.010Z,22.54
2022-09-23T16:58:23.058Z,22.54
2022-09-23T16:58:38.376Z,22.54
2022-09-23T16:58:56.495Z,22.54
2022-09-23T16:59:10.598Z,22.54
2022-09-23T16:59:25.874Z,22.54
2022-09-23T16:59:42.065Z,22.54
2022-09-23T16:59:57.663Z,22.54
2022-09-23T17:00:13.083Z,22.54
2022-09-23T17:00:30.615Z,22.54
2022-09-23T17:00:45.109Z,22.54
2022-09-23T17:01:01.981Z,22.53
2022-09-23T17:01:18.754Z,22.53
2022-09-23T17:01:34.559Z,22.53
2022-09-23T17:01:53.563Z,22.53
2022-09-23T17:02:10.241Z,22.52
2022-09-23T17:02:24.209Z,22.52
2022-09-23T17:02:38.281Z,22.52
2022-09-23T17:02:53.918Z,22.52
2022-09-23T17:03:08.931Z,22.52
2022-09-23T17:03:26.040Z,22.52
2022-09-23T17:03:41.645Z,22.52
2022-09-23T17:03:59.186Z,22.52
2022-09-23T17:04:15.849Z,22.52
2022-09-23T17:04:32.814Z,22.52
2022-09-23T17:04:46.074Z,22.52
2022-09-23T17:05:02.310Z,22.52
2022-09-23T17:05:18.122Z,22.52
2022-09-23T17:05:34.173Z,22.52
2022-09-23T17:05:52.177Z,22.52
2022-09-23T17:06:07.893Z,22.52
2022-09-23T17:06:22.255Z,22.52
2022-09-23T17:06:39.754Z,22.52
2022-09-23T17:06:53.789Z,22.52
2022-09-23T17:07:09.260Z,22.51
2022-09-23T17:07:26.397Z,22.51
2022-09-23T17:07:42.243Z,22.51
2022-09-23T17:07:58.470Z,22.51
2022-09-23T17:08:13.736Z,22.51
2022-09-23T17:08:29.252Z,22.5
2022-09-23T17:08:46.010Z,22.5
2022-09-23T17:09:01.721Z,22.5
2022-09-23T17:09:18.219Z,22.5
2022-09-23T17:09:33.822Z,22.5
2022-09-23T17:09:50.303Z,22.5
2022-09-23T17:10:07.336Z,22.5
2022-09-23T17:10:21.954Z,22.5
2022-09-23T17:10:38.843Z,22.5
2022-09-23T17:10:54.937Z,22.5
2022-09-23T17:11:10.032Z,22.5
2022-09-23T17:11:29.108Z,22.5
2022-09-23T17:11:43.449Z,22.5
2022-09-23T17:11:57.863Z,22.5
2022-09-23T17:12:15.230Z,22.5
2022-09-23T17:12:30.490Z,22.5
2022-09-23T17:12:46.548Z,22.5
2022-09-23T17:13:01.845Z,22.5
2022-09-23T17:13:18.753Z,22.5
2022-09-23T17:13:33.857Z,22.5
2022-09-23T17:13:49.106Z,22.5
2022-09-23T17:14:21.609Z,22.49
2022-09-23T17:14:39.841Z,22.49
2022-09-23T17:14:53.465Z,22.49
2022-09-23T17:15:10.924Z,22.48
2022-09-23T17:15:28.530Z,22.48
2022-09-23T17:15:42.343Z,22.48
2022-09-23T17:15:59.558Z,22.48
2022-09-23T17:16:15.485Z,22.48
2022-09-23T17:16:31.178Z,22.48
2022-09-23T17:16:46.685Z,22.48
2022-09-23T17:17:02.977Z,22.48
2022-09-23T17:17:17.971Z,22.48
2022-09-23T17:17:36.296Z,22.48
2022-09-23T17:17:50.754Z,22.48
2022-09-23T17:18:07.153Z,22.48
2022-09-23T17:18:22.603Z,22.48
2022-09-23T17:18:39.800Z,22.48
2022-09-23T17:18:58.745Z,22.48
2022-09-23T17:19:11.874Z,22.48
2022-09-23T17:19:26.827Z,22.47
2022-09-23T17:19:42.009Z,22.47
2022-09-23T17:20:04.056Z,22.47
2022-09-23T17:20:17.297Z,22.47
2022-09-23T17:20:32.948Z,22.47
2022-09-23T17:20:47.005Z,22.47
2022-09-23T17:21:03.883Z,22.46
2022-09-23T17:21:21.153Z,22.46
2022-09-23T17:21:50.978Z,22.46
2022-09-23T17:22:06.379Z,22.46
2022-09-23T17:22:23.350Z,22.46
2022-09-23T17:22:39.435Z,22.46
2022-09-23T17:22:56.615Z,22.46
2022-09-23T17:23:29.291Z,22.45
2022-09-23T17:23:46.674Z,22.45
2022-09-23T17:24:03.096Z,22.45
2022-09-23T17:24:17.990Z,22.45
2022-09-23T17:24:31.905Z,22.45
2022-09-23T17:24:49.159Z,22.45
2022-09-23T17:25:02.077Z,22.45
2022-09-23T17:25:34.035Z,22.45
2022-09-23T17:25:52.245Z,22.45
2022-09-23T17:26:07.047Z,22.45
2022-09-23T17:26:23.917Z,22.45
2022-09-23T17:26:42.950Z,22.45
2022-09-23T17:26:57.429Z,22.45
2022-09-23T17:27:10.864Z,22.45
2022-09-23T17:27:26.208Z,22.45
2022-09-23T17:27:47.100Z,22.45
2022-09-23T17:28:00.894Z,22.45
2022-09-23T17:28:15.836Z,22.44
2022-09-23T17:28:31.884Z,22.44
2022-09-23T17:28:47.366Z,22.44
2022-09-23T17:29:02.530Z,22.43
2022-09-23T17:29:19.369Z,22.43
2022-09-23T17:29:36.384Z,22.43
2022-09-23T17:29:54.537Z,22.43
2022-09-23T17:30:11.736Z,22.43
2022-09-23T17:30:26.877Z,22.43
2022-09-23T17:30:43.728Z,22.43
2022-09-23T17:30:56.463Z,22.43
2022-09-23T17:31:11.004Z,22.43
2022-09-23T17:31:29.000Z,22.43
2022-09-23T17:31:43.970Z,22.43
2022-09-23T17:32:00.144Z,22.43
2022-09-23T17:32:16.187Z,22.43
2022-09-23T17:32:30.499Z,22.43
2022-09-23T17:32:45.691Z,22.43
2022-09-23T17:33:02.849Z,22.43
2022-09-23T17:33:17.966Z,22.43
2022-09-23T17:33:35.234Z,22.42
2022-09-23T17:33:50.275Z,22.42
2022-09-23T17:34:10.034Z,22.42
2022-09-23T17:34:22.305Z,22.41
2022-09-23T17:34:40.027Z,22.41
2022-09-23T17:34:56.605Z,22.41
2022-09-23T17:35:12.296Z,22.41
2022-09-23T17:35:26.991Z,22.41
2022-09-23T17:35:42.380Z,22.41
2022-09-23T17:35:59.287Z,22.41
2022-09-23T17:36:14.024Z,22.41
2022-09-23T17:36:33.351Z,22.41
2022-09-23T17:36:46.098Z,22.41
2022-09-23T17:37:05.940Z,22.41
2022-09-23T17:37:20.352Z,22.41
2022-09-23T17:37:36.376Z,22.41
2022-09-23T17:37:50.401Z,22.41
2022-09-23T17:38:05.780Z,22.41
2022-09-23T17:38:28.638Z,22.41
2022-09-23T17:38:39.678Z,22.4
2022-09-23T17:38:54.496Z,22.4
2022-09-23T17:39:10.537Z,22.4
2022-09-23T17:39:27.817Z,22.4
2022-09-23T17:39:43.000Z,22.4
2022-09-23T17:40:01.201Z,22.4
2022-09-23T17:40:14.430Z,22.39
2022-09-23T17:40:33.202Z,22.39
2022-09-23T17:40:50.277Z,22.39
2022-09-23T17:41:05.747Z,22.39
2022-09-23T17:41:18.898Z,22.39
2022-09-23T17:41:39.026Z,22.39
2022-09-23T17:41:53.637Z,22.39
2022-09-23T17:42:09.280Z,22.39
2022-09-23T17:42:23.367Z,22.39
2022-09-23T17:42:37.882Z,22.39
2022-09-23T17:42:54.746Z,22.39
2022-09-23T17:43:14.475Z,22.39
2022-09-23T17:43:29.215Z,22.39
2022-09-23T17:43:42.232Z,22.39
2022-09-23T17:43:57.514Z,22.39